sensor_id;sensor_type;location;lat;lon;timestamp;temperature;humidity
15906;DHT22;8051;50.820;4.884;2022-07-21T00:02:26;18.00;99.90
15906;DHT22;8051;50.820;4.884;2022-07-21T00:04:53;18.10;99.90
15906;DHT22;8051;50.820;4.884;2022-07-21T00:07:20;18.10;99.90
15906;DHT22;8051;50.820;4.884;2022-07-21T00:09:46;18.00;99.90
15906;DHT22;8051;50.820;4.884;2022-07-21T00:12:13;18.10;99.90
15906;DHT22;8051;50.820;4.884;2022-07-21T00:14:41;18.10;99.90
15906;DHT22;8051;50.820;4.884;2022-07-21T00:17:08;18.10;99.90
15906;DHT22;8051;50.820;4.884;2022-07-21T00:19:36;18.10;99.90
15906;DHT22;8051;50.820;4.884;2022-07-21T00:22:02;18.10;99.90
15906;DHT22;8051;50.820;4.884;2022-07-21T00:24:29;18.10;99.90
15906;DHT22;8051;50.820;4.884;2022-07-21T00:26:56;18.10;99.90
15906;DHT22;8051;50.820;4.884;2022-07-21T00:29:23;18.10;99.90
15906;DHT22;8051;50.820;4.884;2022-07-21T00:31:51;18.10;99.90
15906;DHT22;8051;50.820;4.884;2022-07-21T00:34:18;18.10;99.90
15906;DHT22;8051;50.820;4.884;2022-07-21T00:36:45;18.10;99.90
15906;DHT22;8051;50.820;4.884;2022-07-21T00:39:12;18.10;99.90
15906;DHT22;8051;50.820;4.884;2022-07-21T00:41:39;18.10;99.90
15906;DHT22;8051;50.820;4.884;2022-07-21T00:44:06;18.10;99.90
15906;DHT22;8051;50.820;4.884;2022-07-21T00:46:32;18.10;99.90
15906;DHT22;8051;50.820;4.884;2022-07-21T00:49:01;18.10;99.90
15906;DHT22;8051;50.820;4.884;2022-07-21T00:51:27;18.00;99.90
15906;DHT22;8051;50.820;4.884;2022-07-21T00:53:54;18.00;99.90
15906;DHT22;8051;50.820;4.884;2022-07-21T00:56:22;17.90;99.90
15906;DHT22;8051;50.820;4.884;2022-07-21T00:58:48;17.90;99.90
15906;DHT22;8051;50.820;4.884;2022-07-21T01:01:15;17.90;99.90
15906;DHT22;8051;50.820;4.884;2022-07-21T01:03:42;17.80;99.90
15906;DHT22;8051;50.820;4.884;2022-07-21T01:06:10;17.80;99.90
15906;DHT22;8051;50.820;4.884;2022-07-21T01:08:37;17.80;99.90
15906;DHT22;8051;50.820;4.884;2022-07-21T01:11:04;17.80;99.90
15906;DHT22;8051;50.820;4.884;2022-07-21T01:13:31;17.70;99.90
15906;DHT22;8051;50.820;4.884;2022-07-21T01:15:58;17.70;99.90
15906;DHT22;8051;50.820;4.884;2022-07-21T01:18:26;17.60;99.90
15906;DHT22;8051;50.820;4.884;2022-07-21T01:20:54;17.60;99.90
15906;DHT22;8051;50.820;4.884;2022-07-21T01:23:22;17.60;99.90
15906;DHT22;8051;50.820;4.884;2022-07-21T01:25:50;17.60;99.90
15906;DHT22;8051;50.820;4.884;2022-07-21T01:28:17;17.60;99.90
15906;DHT22;8051;50.820;4.884;2022-07-21T01:30:44;17.60;99.90
15906;DHT22;8051;50.820;4.884;2022-07-21T01:33:11;17.70;99.90
15906;DHT22;8051;50.820;4.884;2022-07-21T01:35:38;17.70;99.90
15906;DHT22;8051;50.820;4.884;2022-07-21T01:38:05;17.80;99.90
15906;DHT22;8051;50.820;4.884;2022-07-21T01:40:57;17.80;99.90
15906;DHT22;8051;50.820;4.884;2022-07-21T01:43:42;17.80;99.90
15906;DHT22;8051;50.820;4.884;2022-07-21T01:46:10;17.90;99.90
15906;DHT22;8051;50.820;4.884;2022-07-21T01:48:41;17.80;99.90
15906;DHT22;8051;50.820;4.884;2022-07-21T01:51:08;17.80;99.90
15906;DHT22;8051;50.820;4.884;2022-07-21T01:53:35;17.80;99.90
15906;DHT22;8051;50.820;4.884;2022-07-21T01:56:03;17.80;99.90
15906;DHT22;8051;50.820;4.884;2022-07-21T01:58:31;17.80;99.90
15906;DHT22;8051;50.820;4.884;2022-07-21T02:00:58;17.80;99.90
15906;DHT22;8051;50.820;4.884;2022-07-21T02:03:25;17.90;99.90
15906;DHT22;8051;50.820;4.884;2022-07-21T02:05:52;17.90;99.90
15906;DHT22;8051;50.820;4.884;2022-07-21T02:08:19;17.90;99.90
15906;DHT22;8051;50.820;4.884;2022-07-21T02:10:46;18.00;99.90
15906;DHT22;8051;50.820;4.884;2022-07-21T02:13:14;17.90;99.90
15906;DHT22;8051;50.820;4.884;2022-07-21T02:15:41;17.90;99.90
15906;DHT22;8051;50.820;4.884;2022-07-21T02:18:07;17.90;99.90
15906;DHT22;8051;50.820;4.884;2022-07-21T02:20:35;17.90;99.90
15906;DHT22;8051;50.820;4.884;2022-07-21T02:23:02;18.00;99.90
15906;DHT22;8051;50.820;4.884;2022-07-21T02:25:28;18.00;99.90
15906;DHT22;8051;50.820;4.884;2022-07-21T02:27:55;17.90;99.90
15906;DHT22;8051;50.820;4.884;2022-07-21T02:30:24;17.90;99.90
15906;DHT22;8051;50.820;4.884;2022-07-21T02:32:51;17.90;99.90
15906;DHT22;8051;50.820;4.884;2022-07-21T02:35:19;17.90;99.90
15906;DHT22;8051;50.820;4.884;2022-07-21T02:37:46;17.80;99.90
15906;DHT22;8051;50.820;4.884;2022-07-21T02:40:13;17.80;99.90
15906;DHT22;8051;50.820;4.884;2022-07-21T02:42:40;17.80;99.90
15906;DHT22;8051;50.820;4.884;2022-07-21T02:45:08;17.80;99.90
15906;DHT22;8051;50.820;4.884;2022-07-21T02:47:49;17.80;99.90
15906;DHT22;8051;50.820;4.884;2022-07-21T02:50:17;17.80;99.90
15906;DHT22;8051;50.820;4.884;2022-07-21T02:52:44;17.80;99.90
15906;DHT22;8051;50.820;4.884;2022-07-21T02:55:11;17.70;99.90
15906;DHT22;8051;50.820;4.884;2022-07-21T02:57:38;17.70;99.90
15906;DHT22;8051;50.820;4.884;2022-07-21T03:00:07;17.70;99.90
15906;DHT22;8051;50.820;4.884;2022-07-21T03:02:35;17.70;99.90
15906;DHT22;8051;50.820;4.884;2022-07-21T03:05:04;17.70;99.90
15906;DHT22;8051;50.820;4.884;2022-07-21T03:07:31;17.70;99.90
15906;DHT22;8051;50.820;4.884;2022-07-21T03:09:58;17.70;99.90
15906;DHT22;8051;50.820;4.884;2022-07-21T03:12:25;17.70;99.90
15906;DHT22;8051;50.820;4.884;2022-07-21T03:14:51;17.70;99.90
15906;DHT22;8051;50.820;4.884;2022-07-21T03:17:18;17.70;99.90
15906;DHT22;8051;50.820;4.884;2022-07-21T03:19:45;17.80;99.90
15906;DHT22;8051;50.820;4.884;2022-07-21T03:22:13;17.80;99.90
15906;DHT22;8051;50.820;4.884;2022-07-21T03:24:40;17.80;99.90
15906;DHT22;8051;50.820;4.884;2022-07-21T03:27:07;17.80;99.90
15906;DHT22;8051;50.820;4.884;2022-07-21T03:29:34;17.90;99.90
15906;DHT22;8051;50.820;4.884;2022-07-21T03:32:01;17.90;99.90
15906;DHT22;8051;50.820;4.884;2022-07-21T03:34:28;17.90;99.90
15906;DHT22;8051;50.820;4.884;2022-07-21T03:36:55;17.90;99.90
15906;DHT22;8051;50.820;4.884;2022-07-21T03:39:23;17.90;99.90
15906;DHT22;8051;50.820;4.884;2022-07-21T03:41:50;17.90;99.90
15906;DHT22;8051;50.820;4.884;2022-07-21T03:44:16;17.90;99.90
15906;DHT22;8051;50.820;4.884;2022-07-21T03:46:43;18.00;99.90
15906;DHT22;8051;50.820;4.884;2022-07-21T03:49:10;18.00;99.90
15906;DHT22;8051;50.820;4.884;2022-07-21T03:51:37;18.00;99.90
15906;DHT22;8051;50.820;4.884;2022-07-21T03:54:04;18.00;99.90
15906;DHT22;8051;50.820;4.884;2022-07-21T03:56:32;18.00;99.90
15906;DHT22;8051;50.820;4.884;2022-07-21T03:58:59;18.00;99.90
15906;DHT22;8051;50.820;4.884;2022-07-21T04:01:26;18.00;99.90
15906;DHT22;8051;50.820;4.884;2022-07-21T04:03:52;18.00;99.90
15906;DHT22;8051;50.820;4.884;2022-07-21T04:06:19;18.00;99.90
15906;DHT22;8051;50.820;4.884;2022-07-21T04:08:46;18.00;99.90
15906;DHT22;8051;50.820;4.884;2022-07-21T04:11:13;18.00;99.90
15906;DHT22;8051;50.820;4.884;2022-07-21T04:13:41;18.00;99.90
15906;DHT22;8051;50.820;4.884;2022-07-21T04:16:08;18.10;99.90
15906;DHT22;8051;50.820;4.884;2022-07-21T04:18:35;18.10;99.90
15906;DHT22;8051;50.820;4.884;2022-07-21T04:21:02;18.10;99.90
15906;DHT22;8051;50.820;4.884;2022-07-21T04:23:29;18.10;99.90
15906;DHT22;8051;50.820;4.884;2022-07-21T04:25:57;18.10;99.90
15906;DHT22;8051;50.820;4.884;2022-07-21T04:28:23;18.20;99.90
15906;DHT22;8051;50.820;4.884;2022-07-21T04:30:52;18.20;99.90
15906;DHT22;8051;50.820;4.884;2022-07-21T04:33:18;18.20;99.90
15906;DHT22;8051;50.820;4.884;2022-07-21T04:35:45;18.20;99.90
15906;DHT22;8051;50.820;4.884;2022-07-21T04:38:12;18.20;99.90
15906;DHT22;8051;50.820;4.884;2022-07-21T04:40:39;18.20;99.90
15906;DHT22;8051;50.820;4.884;2022-07-21T04:43:06;18.20;99.90
15906;DHT22;8051;50.820;4.884;2022-07-21T04:45:33;18.30;99.90
15906;DHT22;8051;50.820;4.884;2022-07-21T04:48:02;18.20;99.90
15906;DHT22;8051;50.820;4.884;2022-07-21T04:50:30;18.30;99.90
15906;DHT22;8051;50.820;4.884;2022-07-21T04:52:58;18.30;99.90
15906;DHT22;8051;50.820;4.884;2022-07-21T04:55:25;18.30;99.90
15906;DHT22;8051;50.820;4.884;2022-07-21T04:57:53;18.30;99.90
15906;DHT22;8051;50.820;4.884;2022-07-21T05:00:23;18.30;99.90
15906;DHT22;8051;50.820;4.884;2022-07-21T05:02:51;18.30;99.90
15906;DHT22;8051;50.820;4.884;2022-07-21T05:05:19;18.40;99.90
15906;DHT22;8051;50.820;4.884;2022-07-21T05:07:46;18.50;99.90
15906;DHT22;8051;50.820;4.884;2022-07-21T05:10:15;18.40;99.90
15906;DHT22;8051;50.820;4.884;2022-07-21T05:12:43;18.40;99.90
15906;DHT22;8051;50.820;4.884;2022-07-21T05:15:11;18.40;99.90
15906;DHT22;8051;50.820;4.884;2022-07-21T05:17:39;18.40;99.90
15906;DHT22;8051;50.820;4.884;2022-07-21T05:20:07;18.50;99.90
15906;DHT22;8051;50.820;4.884;2022-07-21T05:22:36;18.50;99.90
15906;DHT22;8051;50.820;4.884;2022-07-21T05:25:04;18.50;99.90
15906;DHT22;8051;50.820;4.884;2022-07-21T05:27:31;18.50;99.90
15906;DHT22;8051;50.820;4.884;2022-07-21T05:29:58;18.60;99.90
15906;DHT22;8051;50.820;4.884;2022-07-21T05:32:25;18.70;99.90
15906;DHT22;8051;50.820;4.884;2022-07-21T05:34:51;18.70;99.90
15906;DHT22;8051;50.820;4.884;2022-07-21T05:37:18;18.80;99.90
15906;DHT22;8051;50.820;4.884;2022-07-21T05:39:46;18.80;99.90
15906;DHT22;8051;50.820;4.884;2022-07-21T05:42:13;18.90;99.90
15906;DHT22;8051;50.820;4.884;2022-07-21T05:44:40;18.90;99.90
15906;DHT22;8051;50.820;4.884;2022-07-21T05:47:07;19.10;99.90
15906;DHT22;8051;50.820;4.884;2022-07-21T05:49:34;19.20;99.90
15906;DHT22;8051;50.820;4.884;2022-07-21T05:52:01;19.30;99.90
15906;DHT22;8051;50.820;4.884;2022-07-21T05:54:28;19.40;99.90
15906;DHT22;8051;50.820;4.884;2022-07-21T05:56:56;19.50;99.90
15906;DHT22;8051;50.820;4.884;2022-07-21T05:59:23;19.50;99.90
15906;DHT22;8051;50.820;4.884;2022-07-21T06:01:50;19.60;99.90
15906;DHT22;8051;50.820;4.884;2022-07-21T06:04:17;19.80;99.90
15906;DHT22;8051;50.820;4.884;2022-07-21T06:06:44;19.90;99.90
15906;DHT22;8051;50.820;4.884;2022-07-21T06:09:11;19.90;99.90
15906;DHT22;8051;50.820;4.884;2022-07-21T06:11:38;19.90;99.90
15906;DHT22;8051;50.820;4.884;2022-07-21T06:14:06;19.70;99.90
15906;DHT22;8051;50.820;4.884;2022-07-21T06:16:33;19.60;99.90
15906;DHT22;8051;50.820;4.884;2022-07-21T06:19:00;19.50;99.90
15906;DHT22;8051;50.820;4.884;2022-07-21T06:21:28;19.40;99.90
15906;DHT22;8051;50.820;4.884;2022-07-21T06:23:55;19.30;99.90
15906;DHT22;8051;50.820;4.884;2022-07-21T06:26:22;19.20;99.90
15906;DHT22;8051;50.820;4.884;2022-07-21T06:28:49;19.30;99.90
15906;DHT22;8051;50.820;4.884;2022-07-21T06:31:17;19.20;99.90
15906;DHT22;8051;50.820;4.884;2022-07-21T06:33:44;19.10;99.90
15906;DHT22;8051;50.820;4.884;2022-07-21T06:36:10;19.10;99.90
15906;DHT22;8051;50.820;4.884;2022-07-21T06:38:37;18.90;99.90
15906;DHT22;8051;50.820;4.884;2022-07-21T06:41:05;18.80;99.90
15906;DHT22;8051;50.820;4.884;2022-07-21T06:43:32;18.80;99.90
15906;DHT22;8051;50.820;4.884;2022-07-21T06:45:59;18.60;99.90
15906;DHT22;8051;50.820;4.884;2022-07-21T06:48:27;18.50;99.90
15906;DHT22;8051;50.820;4.884;2022-07-21T06:50:54;18.50;99.90
15906;DHT22;8051;50.820;4.884;2022-07-21T06:53:22;18.40;99.90
15906;DHT22;8051;50.820;4.884;2022-07-21T06:55:49;18.40;99.90
15906;DHT22;8051;50.820;4.884;2022-07-21T06:58:19;18.30;99.90
15906;DHT22;8051;50.820;4.884;2022-07-21T07:00:48;18.30;99.90
15906;DHT22;8051;50.820;4.884;2022-07-21T07:03:16;18.30;99.90
15906;DHT22;8051;50.820;4.884;2022-07-21T07:05:46;18.20;99.90
15906;DHT22;8051;50.820;4.884;2022-07-21T07:08:13;18.10;99.90
15906;DHT22;8051;50.820;4.884;2022-07-21T07:10:41;18.20;99.90
15906;DHT22;8051;50.820;4.884;2022-07-21T07:13:09;18.20;99.90
15906;DHT22;8051;50.820;4.884;2022-07-21T07:15:36;18.20;99.90
15906;DHT22;8051;50.820;4.884;2022-07-21T07:18:03;18.00;99.90
15906;DHT22;8051;50.820;4.884;2022-07-21T07:20:30;18.10;99.90
15906;DHT22;8051;50.820;4.884;2022-07-21T07:22:58;18.10;99.90
15906;DHT22;8051;50.820;4.884;2022-07-21T07:25:25;18.10;99.90
15906;DHT22;8051;50.820;4.884;2022-07-21T07:27:52;18.10;99.90
15906;DHT22;8051;50.820;4.884;2022-07-21T07:30:19;18.10;99.90
15906;DHT22;8051;50.820;4.884;2022-07-21T07:32:47;18.10;99.90
15906;DHT22;8051;50.820;4.884;2022-07-21T07:35:14;18.10;99.90
15906;DHT22;8051;50.820;4.884;2022-07-21T07:37:43;18.10;99.90
15906;DHT22;8051;50.820;4.884;2022-07-21T07:40:14;18.10;99.90
15906;DHT22;8051;50.820;4.884;2022-07-21T07:42:41;18.10;99.90
15906;DHT22;8051;50.820;4.884;2022-07-21T07:45:09;18.10;99.90
15906;DHT22;8051;50.820;4.884;2022-07-21T07:47:37;18.10;99.90
15906;DHT22;8051;50.820;4.884;2022-07-21T07:50:05;18.10;99.90
15906;DHT22;8051;50.820;4.884;2022-07-21T07:52:34;18.00;99.90
15906;DHT22;8051;50.820;4.884;2022-07-21T07:55:00;18.00;99.90
15906;DHT22;8051;50.820;4.884;2022-07-21T07:57:32;18.00;99.90
15906;DHT22;8051;50.820;4.884;2022-07-21T07:59:58;18.00;99.90
15906;DHT22;8051;50.820;4.884;2022-07-21T08:02:25;17.90;99.90
15906;DHT22;8051;50.820;4.884;2022-07-21T08:04:52;17.90;99.90
15906;DHT22;8051;50.820;4.884;2022-07-21T08:07:19;17.90;99.90
15906;DHT22;8051;50.820;4.884;2022-07-21T08:09:46;18.00;99.90
15906;DHT22;8051;50.820;4.884;2022-07-21T08:12:12;18.00;99.90
15906;DHT22;8051;50.820;4.884;2022-07-21T08:14:41;17.90;99.90
15906;DHT22;8051;50.820;4.884;2022-07-21T08:17:08;17.90;99.90
15906;DHT22;8051;50.820;4.884;2022-07-21T08:19:34;17.80;99.90
15906;DHT22;8051;50.820;4.884;2022-07-21T08:22:01;17.80;99.90
15906;DHT22;8051;50.820;4.884;2022-07-21T08:24:28;17.80;99.90
15906;DHT22;8051;50.820;4.884;2022-07-21T08:26:55;17.80;99.90
15906;DHT22;8051;50.820;4.884;2022-07-21T08:29:22;17.80;99.90
15906;DHT22;8051;50.820;4.884;2022-07-21T08:31:50;17.80;99.90
15906;DHT22;8051;50.820;4.884;2022-07-21T08:34:17;17.90;99.90
15906;DHT22;8051;50.820;4.884;2022-07-21T08:36:44;17.90;99.90
15906;DHT22;8051;50.820;4.884;2022-07-21T08:39:11;17.90;99.90
15906;DHT22;8051;50.820;4.884;2022-07-21T08:41:40;18.00;99.90
15906;DHT22;8051;50.820;4.884;2022-07-21T08:44:06;17.90;99.90
15906;DHT22;8051;50.820;4.884;2022-07-21T08:46:37;18.00;99.90
15906;DHT22;8051;50.820;4.884;2022-07-21T08:49:06;18.00;99.90
15906;DHT22;8051;50.820;4.884;2022-07-21T08:51:33;18.00;99.90
15906;DHT22;8051;50.820;4.884;2022-07-21T08:54:01;18.10;99.90
15906;DHT22;8051;50.820;4.884;2022-07-21T08:56:28;18.10;99.90
15906;DHT22;8051;50.820;4.884;2022-07-21T08:58:55;18.20;99.90
15906;DHT22;8051;50.820;4.884;2022-07-21T09:01:22;18.30;99.90
15906;DHT22;8051;50.820;4.884;2022-07-21T09:03:49;18.40;99.90
15906;DHT22;8051;50.820;4.884;2022-07-21T09:06:18;18.40;99.90
15906;DHT22;8051;50.820;4.884;2022-07-21T09:08:48;18.50;99.90
15906;DHT22;8051;50.820;4.884;2022-07-21T09:11:18;18.50;99.90
15906;DHT22;8051;50.820;4.884;2022-07-21T09:13:49;18.50;99.90
15906;DHT22;8051;50.820;4.884;2022-07-21T09:16:33;18.50;99.90
15906;DHT22;8051;50.820;4.884;2022-07-21T09:19:01;18.40;99.90
15906;DHT22;8051;50.820;4.884;2022-07-21T09:21:30;18.50;99.90
15906;DHT22;8051;50.820;4.884;2022-07-21T09:24:12;18.40;99.90
15906;DHT22;8051;50.820;4.884;2022-07-21T09:26:57;18.40;99.90
15906;DHT22;8051;50.820;4.884;2022-07-21T09:29:25;18.50;99.90
15906;DHT22;8051;50.820;4.884;2022-07-21T09:31:52;18.60;99.90
15906;DHT22;8051;50.820;4.884;2022-07-21T09:34:19;18.50;99.90
15906;DHT22;8051;50.820;4.884;2022-07-21T09:36:58;18.50;99.90
15906;DHT22;8051;50.820;4.884;2022-07-21T09:39:45;18.50;99.90
15906;DHT22;8051;50.820;4.884;2022-07-21T09:42:19;18.50;99.90
15906;DHT22;8051;50.820;4.884;2022-07-21T09:44:48;18.40;99.90
15906;DHT22;8051;50.820;4.884;2022-07-21T09:47:16;18.50;99.90
15906;DHT22;8051;50.820;4.884;2022-07-21T09:49:44;18.50;99.90
15906;DHT22;8051;50.820;4.884;2022-07-21T09:52:24;18.60;99.90
15906;DHT22;8051;50.820;4.884;2022-07-21T09:54:52;18.60;99.90
15906;DHT22;8051;50.820;4.884;2022-07-21T09:57:20;18.50;99.90
15906;DHT22;8051;50.820;4.884;2022-07-21T09:59:48;18.50;99.90
15906;DHT22;8051;50.820;4.884;2022-07-21T10:02:18;18.50;99.90
15906;DHT22;8051;50.820;4.884;2022-07-21T10:04:50;18.60;99.90
15906;DHT22;8051;50.820;4.884;2022-07-21T10:07:18;18.60;99.90
15906;DHT22;8051;50.820;4.884;2022-07-21T10:09:47;18.50;99.90
15906;DHT22;8051;50.820;4.884;2022-07-21T10:12:15;18.40;99.90
15906;DHT22;8051;50.820;4.884;2022-07-21T10:14:42;18.30;99.90
15906;DHT22;8051;50.820;4.884;2022-07-21T10:17:09;18.20;99.90
15906;DHT22;8051;50.820;4.884;2022-07-21T10:19:42;18.10;99.90
15906;DHT22;8051;50.820;4.884;2022-07-21T10:22:23;17.90;99.90
15906;DHT22;8051;50.820;4.884;2022-07-21T10:24:53;17.80;99.90
15906;DHT22;8051;50.820;4.884;2022-07-21T10:27:21;17.80;99.90
15906;DHT22;8051;50.820;4.884;2022-07-21T10:29:58;17.70;99.90
15906;DHT22;8051;50.820;4.884;2022-07-21T10:32:30;17.70;99.90
15906;DHT22;8051;50.820;4.884;2022-07-21T10:34:59;17.70;99.90
15906;DHT22;8051;50.820;4.884;2022-07-21T10:37:46;17.60;99.90
15906;DHT22;8051;50.820;4.884;2022-07-21T10:40:39;17.60;99.90
15906;DHT22;8051;50.820;4.884;2022-07-21T10:46:32;17.60;99.90
15906;DHT22;8051;50.820;4.884;2022-07-21T10:48:59;17.50;99.90
15906;DHT22;8051;50.820;4.884;2022-07-21T10:51:26;17.50;99.90
15906;DHT22;8051;50.820;4.884;2022-07-21T10:54:22;17.50;99.90
15906;DHT22;8051;50.820;4.884;2022-07-21T10:57:26;17.50;99.90
15906;DHT22;8051;50.820;4.884;2022-07-21T11:00:22;17.60;99.90
15906;DHT22;8051;50.820;4.884;2022-07-21T11:02:52;17.90;99.90
15906;DHT22;8051;50.820;4.884;2022-07-21T11:05:19;18.00;99.90
15906;DHT22;8051;50.820;4.884;2022-07-21T11:08:09;18.10;99.90
15906;DHT22;8051;50.820;4.884;2022-07-21T11:10:36;18.20;99.90
15906;DHT22;8051;50.820;4.884;2022-07-21T11:13:05;18.20;99.90
15906;DHT22;8051;50.820;4.884;2022-07-21T11:16:02;18.20;99.90
15906;DHT22;8051;50.820;4.884;2022-07-21T11:18:30;18.30;99.90
15906;DHT22;8051;50.820;4.884;2022-07-21T11:21:10;18.50;99.90
15906;DHT22;8051;50.820;4.884;2022-07-21T11:23:39;18.70;99.90
15906;DHT22;8051;50.820;4.884;2022-07-21T11:26:07;18.90;99.90
15906;DHT22;8051;50.820;4.884;2022-07-21T11:28:35;18.90;99.90
15906;DHT22;8051;50.820;4.884;2022-07-21T11:31:07;18.80;99.90
15906;DHT22;8051;50.820;4.884;2022-07-21T11:33:36;18.80;99.90
15906;DHT22;8051;50.820;4.884;2022-07-21T11:36:03;18.80;99.90
15906;DHT22;8051;50.820;4.884;2022-07-21T11:38:30;18.60;99.90
15906;DHT22;8051;50.820;4.884;2022-07-21T11:41:13;18.60;99.90
15906;DHT22;8051;50.820;4.884;2022-07-21T11:43:42;18.50;99.90
15906;DHT22;8051;50.820;4.884;2022-07-21T11:46:09;18.40;99.90
15906;DHT22;8051;50.820;4.884;2022-07-21T11:48:36;18.20;99.90
15906;DHT22;8051;50.820;4.884;2022-07-21T11:51:04;18.10;99.90
15906;DHT22;8051;50.820;4.884;2022-07-21T11:53:31;18.10;99.90
15906;DHT22;8051;50.820;4.884;2022-07-21T11:55:58;18.10;99.90
15906;DHT22;8051;50.820;4.884;2022-07-21T11:58:25;18.20;99.90
15906;DHT22;8051;50.820;4.884;2022-07-21T12:01:05;18.30;99.90
15906;DHT22;8051;50.820;4.884;2022-07-21T12:03:33;18.60;99.90
15906;DHT22;8051;50.820;4.884;2022-07-21T12:06:00;18.90;99.90
15906;DHT22;8051;50.820;4.884;2022-07-21T12:08:28;19.00;99.90
15906;DHT22;8051;50.820;4.884;2022-07-21T12:11:06;19.20;99.90
15906;DHT22;8051;50.820;4.884;2022-07-21T12:13:51;19.40;99.90
15906;DHT22;8051;50.820;4.884;2022-07-21T12:16:20;19.40;99.90
15906;DHT22;8051;50.820;4.884;2022-07-21T12:18:47;19.30;99.90
15906;DHT22;8051;50.820;4.884;2022-07-21T12:21:14;19.10;99.90
15906;DHT22;8051;50.820;4.884;2022-07-21T12:23:41;19.00;99.90
15906;DHT22;8051;50.820;4.884;2022-07-21T12:26:19;18.90;99.90
15906;DHT22;8051;50.820;4.884;2022-07-21T12:28:48;18.60;99.90
15906;DHT22;8051;50.820;4.884;2022-07-21T12:31:20;18.30;99.90
15906;DHT22;8051;50.820;4.884;2022-07-21T12:33:49;18.10;99.90
15906;DHT22;8051;50.820;4.884;2022-07-21T12:36:16;18.10;99.90
15906;DHT22;8051;50.820;4.884;2022-07-21T12:38:47;18.30;99.90
15906;DHT22;8051;50.820;4.884;2022-07-21T12:41:17;18.60;99.90
15906;DHT22;8051;50.820;4.884;2022-07-21T12:43:53;18.90;99.90
15906;DHT22;8051;50.820;4.884;2022-07-21T12:46:28;19.10;99.90
15906;DHT22;8051;50.820;4.884;2022-07-21T12:49:03;19.30;99.90
15906;DHT22;8051;50.820;4.884;2022-07-21T12:51:30;19.20;99.90
15906;DHT22;8051;50.820;4.884;2022-07-21T12:53:57;19.00;99.90
15906;DHT22;8051;50.820;4.884;2022-07-21T12:56:26;18.80;99.90
15906;DHT22;8051;50.820;4.884;2022-07-21T12:58:54;18.70;99.90
15906;DHT22;8051;50.820;4.884;2022-07-21T13:01:25;18.70;99.90
15906;DHT22;8051;50.820;4.884;2022-07-21T13:03:53;18.70;99.90
15906;DHT22;8051;50.820;4.884;2022-07-21T13:06:20;18.80;99.90
15906;DHT22;8051;50.820;4.884;2022-07-21T13:08:48;18.70;99.90
15906;DHT22;8051;50.820;4.884;2022-07-21T13:11:17;18.90;99.90
15906;DHT22;8051;50.820;4.884;2022-07-21T13:13:45;18.90;99.90
15906;DHT22;8051;50.820;4.884;2022-07-21T13:16:12;19.00;99.90
15906;DHT22;8051;50.820;4.884;2022-07-21T13:18:40;19.00;99.90
15906;DHT22;8051;50.820;4.884;2022-07-21T13:21:07;19.00;99.90
15906;DHT22;8051;50.820;4.884;2022-07-21T13:23:34;19.00;99.90
15906;DHT22;8051;50.820;4.884;2022-07-21T13:26:01;19.00;99.90
15906;DHT22;8051;50.820;4.884;2022-07-21T13:28:28;18.90;99.90
15906;DHT22;8051;50.820;4.884;2022-07-21T13:30:55;18.70;99.90
15906;DHT22;8051;50.820;4.884;2022-07-21T13:33:22;18.20;99.90
15906;DHT22;8051;50.820;4.884;2022-07-21T13:35:50;18.00;99.90
15906;DHT22;8051;50.820;4.884;2022-07-21T13:38:17;17.90;99.90
15906;DHT22;8051;50.820;4.884;2022-07-21T13:40:44;17.80;99.90
15906;DHT22;8051;50.820;4.884;2022-07-21T13:43:12;17.80;99.90
15906;DHT22;8051;50.820;4.884;2022-07-21T13:45:40;17.80;99.90
15906;DHT22;8051;50.820;4.884;2022-07-21T13:48:07;17.90;99.90
15906;DHT22;8051;50.820;4.884;2022-07-21T13:50:34;18.10;99.90
15906;DHT22;8051;50.820;4.884;2022-07-21T13:53:02;18.30;99.90
15906;DHT22;8051;50.820;4.884;2022-07-21T13:55:29;18.90;99.90
15906;DHT22;8051;50.820;4.884;2022-07-21T13:57:56;19.20;99.90
15906;DHT22;8051;50.820;4.884;2022-07-21T14:00:23;19.40;99.90
15906;DHT22;8051;50.820;4.884;2022-07-21T14:02:50;19.60;99.90
15906;DHT22;8051;50.820;4.884;2022-07-21T14:05:16;19.50;99.90
15906;DHT22;8051;50.820;4.884;2022-07-21T14:07:43;19.40;99.90
15906;DHT22;8051;50.820;4.884;2022-07-21T14:10:11;19.50;99.90
15906;DHT22;8051;50.820;4.884;2022-07-21T14:12:38;19.40;99.90
15906;DHT22;8051;50.820;4.884;2022-07-21T14:15:06;19.50;99.90
15906;DHT22;8051;50.820;4.884;2022-07-21T14:17:33;19.50;99.90
15906;DHT22;8051;50.820;4.884;2022-07-21T14:20:00;19.30;99.90
15906;DHT22;8051;50.820;4.884;2022-07-21T14:22:27;19.10;99.90
15906;DHT22;8051;50.820;4.884;2022-07-21T14:24:54;19.10;99.90
15906;DHT22;8051;50.820;4.884;2022-07-21T14:27:40;18.90;99.90
15906;DHT22;8051;50.820;4.884;2022-07-21T14:30:08;18.90;99.90
15906;DHT22;8051;50.820;4.884;2022-07-21T14:32:35;18.70;99.90
15906;DHT22;8051;50.820;4.884;2022-07-21T14:35:02;18.50;99.90
15906;DHT22;8051;50.820;4.884;2022-07-21T14:37:29;18.20;99.90
15906;DHT22;8051;50.820;4.884;2022-07-21T14:39:56;18.00;99.90
15906;DHT22;8051;50.820;4.884;2022-07-21T14:42:23;18.00;99.90
15906;DHT22;8051;50.820;4.884;2022-07-21T14:44:51;18.00;99.90
15906;DHT22;8051;50.820;4.884;2022-07-21T14:47:18;18.20;99.90
15906;DHT22;8051;50.820;4.884;2022-07-21T14:49:46;18.40;99.90
15906;DHT22;8051;50.820;4.884;2022-07-21T14:52:13;18.70;99.90
15906;DHT22;8051;50.820;4.884;2022-07-21T14:54:40;19.00;99.90
15906;DHT22;8051;50.820;4.884;2022-07-21T14:57:07;19.20;99.90
15906;DHT22;8051;50.820;4.884;2022-07-21T14:59:34;19.40;99.90
15906;DHT22;8051;50.820;4.884;2022-07-21T15:02:02;19.50;99.90
15906;DHT22;8051;50.820;4.884;2022-07-21T15:04:29;19.70;99.90
15906;DHT22;8051;50.820;4.884;2022-07-21T15:06:56;19.80;99.90
15906;DHT22;8051;50.820;4.884;2022-07-21T15:09:23;19.70;99.90
15906;DHT22;8051;50.820;4.884;2022-07-21T15:11:49;19.60;99.90
15906;DHT22;8051;50.820;4.884;2022-07-21T15:14:17;19.60;99.90
15906;DHT22;8051;50.820;4.884;2022-07-21T15:16:43;19.50;99.90
15906;DHT22;8051;50.820;4.884;2022-07-21T15:19:12;19.30;99.90
15906;DHT22;8051;50.820;4.884;2022-07-21T15:21:39;19.00;99.90
15906;DHT22;8051;50.820;4.884;2022-07-21T15:24:07;18.70;99.90
15906;DHT22;8051;50.820;4.884;2022-07-21T15:26:33;18.50;99.90
15906;DHT22;8051;50.820;4.884;2022-07-21T15:29:00;18.40;99.90
15906;DHT22;8051;50.820;4.884;2022-07-21T15:31:30;18.30;99.90
15906;DHT22;8051;50.820;4.884;2022-07-21T15:33:57;18.30;99.90
15906;DHT22;8051;50.820;4.884;2022-07-21T15:36:25;18.40;99.90
15906;DHT22;8051;50.820;4.884;2022-07-21T15:38:52;18.40;99.90
15906;DHT22;8051;50.820;4.884;2022-07-21T15:41:19;18.20;99.90
15906;DHT22;8051;50.820;4.884;2022-07-21T15:43:46;18.30;99.90
15906;DHT22;8051;50.820;4.884;2022-07-21T15:46:13;18.50;99.90
15906;DHT22;8051;50.820;4.884;2022-07-21T15:48:40;18.70;99.90
15906;DHT22;8051;50.820;4.884;2022-07-21T15:51:07;19.00;99.90
15906;DHT22;8051;50.820;4.884;2022-07-21T15:53:35;19.90;99.90
15906;DHT22;8051;50.820;4.884;2022-07-21T15:56:03;21.70;99.90
15906;DHT22;8051;50.820;4.884;2022-07-21T15:58:30;22.70;99.90